sensor_id;sensor_type;location;lat;lon;timestamp;P1;durP1;ratioP1;P2;durP2;ratioP2
75614;SDS011;64199;48.578;-4.520;2023-04-06T00:01:51;0.68;;;0.50;;
75614;SDS011;64199;48.578;-4.520;2023-04-06T00:04:17;0.65;;;0.50;;
75614;SDS011;64199;48.578;-4.520;2023-04-06T00:06:43;1.42;;;0.60;;
75614;SDS011;64199;48.578;-4.520;2023-04-06T00:09:09;1.00;;;0.43;;
75614;SDS011;64199;48.578;-4.520;2023-04-06T00:11:35;0.47;;;0.40;;
75614;SDS011;64199;48.578;-4.520;2023-04-06T00:14:01;0.63;;;0.35;;
75614;SDS011;64199;48.578;-4.520;2023-04-06T00:16:26;1.58;;;0.73;;
75614;SDS011;64199;48.578;-4.520;2023-04-06T00:18:52;0.40;;;0.40;;
75614;SDS011;64199;48.578;-4.520;2023-04-06T00:21:18;0.65;;;0.50;;
75614;SDS011;64199;48.578;-4.520;2023-04-06T00:23:44;0.40;;;0.40;;
75614;SDS011;64199;48.578;-4.520;2023-04-06T00:26:10;2.92;;;0.52;;
75614;SDS011;64199;48.578;-4.520;2023-04-06T00:28:38;1.17;;;0.60;;
75614;SDS011;64199;48.578;-4.520;2023-04-06T00:31:05;0.40;;;0.40;;
75614;SDS011;64199;48.578;-4.520;2023-04-06T00:33:31;0.60;;;0.40;;
75614;SDS011;64199;48.578;-4.520;2023-04-06T00:35:57;2.35;;;0.70;;
75614;SDS011;64199;48.578;-4.520;2023-04-06T00:38:23;1.33;;;0.40;;
75614;SDS011;64199;48.578;-4.520;2023-04-06T00:40:49;1.30;;;0.70;;
75614;SDS011;64199;48.578;-4.520;2023-04-06T00:43:15;0.60;;;0.60;;
75614;SDS011;64199;48.578;-4.520;2023-04-06T00:45:41;1.17;;;0.57;;
75614;SDS011;64199;48.578;-4.520;2023-04-06T00:48:08;0.90;;;0.60;;
75614;SDS011;64199;48.578;-4.520;2023-04-06T00:50:34;1.85;;;0.70;;
75614;SDS011;64199;48.578;-4.520;2023-04-06T00:53:00;1.42;;;0.60;;
75614;SDS011;64199;48.578;-4.520;2023-04-06T00:55:29;1.27;;;0.50;;
75614;SDS011;64199;48.578;-4.520;2023-04-06T00:57:59;0.95;;;0.50;;
75614;SDS011;64199;48.578;-4.520;2023-04-06T01:00:26;2.95;;;0.60;;
75614;SDS011;64199;48.578;-4.520;2023-04-06T01:02:52;0.38;;;0.35;;
75614;SDS011;64199;48.578;-4.520;2023-04-06T01:05:18;1.15;;;0.57;;
75614;SDS011;64199;48.578;-4.520;2023-04-06T01:07:44;1.33;;;0.50;;
75614;SDS011;64199;48.578;-4.520;2023-04-06T01:10:10;0.55;;;0.50;;
75614;SDS011;64199;48.578;-4.520;2023-04-06T01:12:36;1.15;;;0.68;;
75614;SDS011;64199;48.578;-4.520;2023-04-06T01:15:05;0.60;;;0.35;;
75614;SDS011;64199;48.578;-4.520;2023-04-06T01:17:31;0.70;;;0.60;;
75614;SDS011;64199;48.578;-4.520;2023-04-06T01:19:57;2.55;;;0.70;;
75614;SDS011;64199;48.578;-4.520;2023-04-06T01:22:23;0.75;;;0.60;;
75614;SDS011;64199;48.578;-4.520;2023-04-06T01:24:50;1.20;;;0.60;;
75614;SDS011;64199;48.578;-4.520;2023-04-06T01:27:16;0.80;;;0.50;;
75614;SDS011;64199;48.578;-4.520;2023-04-06T01:29:41;0.82;;;0.50;;
75614;SDS011;64199;48.578;-4.520;2023-04-06T01:32:08;2.50;;;0.80;;
75614;SDS011;64199;48.578;-4.520;2023-04-06T01:34:34;1.13;;;0.60;;
75614;SDS011;64199;48.578;-4.520;2023-04-06T01:37:00;4.05;;;0.60;;
75614;SDS011;64199;48.578;-4.520;2023-04-06T01:39:26;1.08;;;0.60;;
75614;SDS011;64199;48.578;-4.520;2023-04-06T01:41:52;1.27;;;0.73;;
75614;SDS011;64199;48.578;-4.520;2023-04-06T01:44:18;0.65;;;0.60;;
75614;SDS011;64199;48.578;-4.520;2023-04-06T01:46:44;1.25;;;0.60;;
75614;SDS011;64199;48.578;-4.520;2023-04-06T01:49:11;1.38;;;0.63;;
75614;SDS011;64199;48.578;-4.520;2023-04-06T01:51:37;1.25;;;0.60;;
75614;SDS011;64199;48.578;-4.520;2023-04-06T01:54:03;3.47;;;0.70;;
75614;SDS011;64199;48.578;-4.520;2023-04-06T01:56:29;0.90;;;0.77;;
75614;SDS011;64199;48.578;-4.520;2023-04-06T01:58:55;1.48;;;0.70;;
75614;SDS011;64199;48.578;-4.520;2023-04-06T02:01:21;1.60;;;0.60;;
75614;SDS011;64199;48.578;-4.520;2023-04-06T02:03:47;3.13;;;0.93;;
75614;SDS011;64199;48.578;-4.520;2023-04-06T02:06:13;1.00;;;0.70;;
75614;SDS011;64199;48.578;-4.520;2023-04-06T02:08:42;1.15;;;0.70;;
75614;SDS011;64199;48.578;-4.520;2023-04-06T02:11:08;2.30;;;0.65;;
75614;SDS011;64199;48.578;-4.520;2023-04-06T02:13:33;1.67;;;0.80;;
75614;SDS011;64199;48.578;-4.520;2023-04-06T02:15:59;0.75;;;0.60;;
75614;SDS011;64199;48.578;-4.520;2023-04-06T02:18:27;1.05;;;0.50;;
75614;SDS011;64199;48.578;-4.520;2023-04-06T02:20:55;1.98;;;0.60;;
75614;SDS011;64199;48.578;-4.520;2023-04-06T02:23:21;1.85;;;0.80;;
75614;SDS011;64199;48.578;-4.520;2023-04-06T02:25:47;1.35;;;0.70;;
75614;SDS011;64199;48.578;-4.520;2023-04-06T02:28:13;2.80;;;0.90;;
75614;SDS011;64199;48.578;-4.520;2023-04-06T02:30:39;1.70;;;0.63;;
75614;SDS011;64199;48.578;-4.520;2023-04-06T02:33:05;2.10;;;0.98;;
75614;SDS011;64199;48.578;-4.520;2023-04-06T02:35:31;1.00;;;0.63;;
75614;SDS011;64199;48.578;-4.520;2023-04-06T02:37:57;1.25;;;0.90;;
75614;SDS011;64199;48.578;-4.520;2023-04-06T02:40:23;2.25;;;0.88;;
75614;SDS011;64199;48.578;-4.520;2023-04-06T02:42:50;1.13;;;0.75;;
75614;SDS011;64199;48.578;-4.520;2023-04-06T02:45:16;0.90;;;0.65;;
75614;SDS011;64199;48.578;-4.520;2023-04-06T02:47:43;1.73;;;0.80;;
75614;SDS011;64199;48.578;-4.520;2023-04-06T02:50:10;1.80;;;0.65;;
75614;SDS011;64199;48.578;-4.520;2023-04-06T02:52:36;1.00;;;0.70;;
75614;SDS011;64199;48.578;-4.520;2023-04-06T02:55:02;0.60;;;0.60;;
75614;SDS011;64199;48.578;-4.520;2023-04-06T02:57:29;1.58;;;0.50;;
75614;SDS011;64199;48.578;-4.520;2023-04-06T02:59:55;0.50;;;0.50;;
75614;SDS011;64199;48.578;-4.520;2023-04-06T03:02:21;0.55;;;0.50;;
75614;SDS011;64199;48.578;-4.520;2023-04-06T03:04:47;0.73;;;0.60;;
75614;SDS011;64199;48.578;-4.520;2023-04-06T03:07:12;1.20;;;0.82;;
75614;SDS011;64199;48.578;-4.520;2023-04-06T03:09:38;1.10;;;0.65;;
75614;SDS011;64199;48.578;-4.520;2023-04-06T03:12:04;2.15;;;0.70;;
75614;SDS011;64199;48.578;-4.520;2023-04-06T03:14:30;1.38;;;0.80;;
75614;SDS011;64199;48.578;-4.520;2023-04-06T03:16:56;1.20;;;0.60;;
75614;SDS011;64199;48.578;-4.520;2023-04-06T03:19:22;0.65;;;0.60;;
75614;SDS011;64199;48.578;-4.520;2023-04-06T03:21:48;0.70;;;0.60;;
75614;SDS011;64199;48.578;-4.520;2023-04-06T03:24:14;0.82;;;0.70;;
75614;SDS011;64199;48.578;-4.520;2023-04-06T03:26:40;0.60;;;0.60;;
75614;SDS011;64199;48.578;-4.520;2023-04-06T03:29:07;1.20;;;0.60;;
75614;SDS011;64199;48.578;-4.520;2023-04-06T03:31:33;1.05;;;0.70;;
75614;SDS011;64199;48.578;-4.520;2023-04-06T03:33:59;0.60;;;0.60;;
75614;SDS011;64199;48.578;-4.520;2023-04-06T03:36:25;0.90;;;0.60;;
75614;SDS011;64199;48.578;-4.520;2023-04-06T03:38:52;3.03;;;0.90;;
75614;SDS011;64199;48.578;-4.520;2023-04-06T03:41:18;0.93;;;0.50;;
75614;SDS011;64199;48.578;-4.520;2023-04-06T03:43:45;0.85;;;0.60;;
75614;SDS011;64199;48.578;-4.520;2023-04-06T03:46:11;0.95;;;0.80;;
75614;SDS011;64199;48.578;-4.520;2023-04-06T03:48:37;1.65;;;0.50;;
75614;SDS011;64199;48.578;-4.520;2023-04-06T03:51:03;0.85;;;0.65;;
75614;SDS011;64199;48.578;-4.520;2023-04-06T03:53:29;0.60;;;0.60;;
75614;SDS011;64199;48.578;-4.520;2023-04-06T03:55:55;0.47;;;0.47;;
75614;SDS011;64199;48.578;-4.520;2023-04-06T03:58:21;0.63;;;0.50;;
75614;SDS011;64199;48.578;-4.520;2023-04-06T04:00:48;0.73;;;0.50;;
75614;SDS011;64199;48.578;-4.520;2023-04-06T04:03:14;0.40;;;0.40;;
75614;SDS011;64199;48.578;-4.520;2023-04-06T04:05:39;0.80;;;0.70;;
75614;SDS011;64199;48.578;-4.520;2023-04-06T04:08:05;1.17;;;0.70;;
75614;SDS011;64199;48.578;-4.520;2023-04-06T04:10:31;0.77;;;0.60;;
75614;SDS011;64199;48.578;-4.520;2023-04-06T04:12:57;0.90;;;0.80;;
75614;SDS011;64199;48.578;-4.520;2023-04-06T04:15:23;3.20;;;0.68;;
75614;SDS011;64199;48.578;-4.520;2023-04-06T04:17:49;1.27;;;0.63;;
75614;SDS011;64199;48.578;-4.520;2023-04-06T04:20:15;0.90;;;0.57;;
75614;SDS011;64199;48.578;-4.520;2023-04-06T04:22:42;0.47;;;0.47;;
75614;SDS011;64199;48.578;-4.520;2023-04-06T04:25:08;1.00;;;0.60;;
75614;SDS011;64199;48.578;-4.520;2023-04-06T04:27:35;0.85;;;0.50;;
75614;SDS011;64199;48.578;-4.520;2023-04-06T04:30:01;0.57;;;0.50;;
75614;SDS011;64199;48.578;-4.520;2023-04-06T04:32:27;0.68;;;0.60;;
75614;SDS011;64199;48.578;-4.520;2023-04-06T04:34:53;0.90;;;0.50;;
75614;SDS011;64199;48.578;-4.520;2023-04-06T04:37:19;0.40;;;0.40;;
75614;SDS011;64199;48.578;-4.520;2023-04-06T04:39:45;0.50;;;0.50;;
75614;SDS011;64199;48.578;-4.520;2023-04-06T04:42:11;0.85;;;0.77;;
75614;SDS011;64199;48.578;-4.520;2023-04-06T04:44:37;0.63;;;0.52;;
75614;SDS011;64199;48.578;-4.520;2023-04-06T04:47:03;1.35;;;0.70;;
75614;SDS011;64199;48.578;-4.520;2023-04-06T04:49:29;0.60;;;0.50;;
75614;SDS011;64199;48.578;-4.520;2023-04-06T04:51:55;0.95;;;0.57;;
75614;SDS011;64199;48.578;-4.520;2023-04-06T04:54:21;0.47;;;0.47;;
75614;SDS011;64199;48.578;-4.520;2023-04-06T04:56:46;0.55;;;0.40;;
75614;SDS011;64199;48.578;-4.520;2023-04-06T04:59:12;0.50;;;0.50;;
75614;SDS011;64199;48.578;-4.520;2023-04-06T05:01:38;0.40;;;0.40;;
75614;SDS011;64199;48.578;-4.520;2023-04-06T05:04:04;0.47;;;0.40;;
75614;SDS011;64199;48.578;-4.520;2023-04-06T05:06:30;1.05;;;0.40;;
75614;SDS011;64199;48.578;-4.520;2023-04-06T05:08:56;0.73;;;0.40;;
75614;SDS011;64199;48.578;-4.520;2023-04-06T05:11:22;0.98;;;0.50;;
75614;SDS011;64199;48.578;-4.520;2023-04-06T05:13:48;0.98;;;0.50;;
75614;SDS011;64199;48.578;-4.520;2023-04-06T05:16:15;0.47;;;0.47;;
75614;SDS011;64199;48.578;-4.520;2023-04-06T05:18:41;0.60;;;0.60;;
75614;SDS011;64199;48.578;-4.520;2023-04-06T05:21:07;0.60;;;0.40;;
75614;SDS011;64199;48.578;-4.520;2023-04-06T05:23:33;1.20;;;0.40;;
75614;SDS011;64199;48.578;-4.520;2023-04-06T05:26:00;0.30;;;0.30;;
75614;SDS011;64199;48.578;-4.520;2023-04-06T05:28:25;0.38;;;0.32;;
75614;SDS011;64199;48.578;-4.520;2023-04-06T05:30:52;0.43;;;0.43;;
75614;SDS011;64199;48.578;-4.520;2023-04-06T05:33:18;0.52;;;0.30;;
75614;SDS011;64199;48.578;-4.520;2023-04-06T05:35:44;0.32;;;0.30;;
75614;SDS011;64199;48.578;-4.520;2023-04-06T05:38:10;0.45;;;0.40;;
75614;SDS011;64199;48.578;-4.520;2023-04-06T05:40:36;1.27;;;0.40;;
75614;SDS011;64199;48.578;-4.520;2023-04-06T05:43:05;0.55;;;0.30;;
75614;SDS011;64199;48.578;-4.520;2023-04-06T05:45:32;0.88;;;0.50;;
75614;SDS011;64199;48.578;-4.520;2023-04-06T05:47:58;0.52;;;0.50;;
75614;SDS011;64199;48.578;-4.520;2023-04-06T05:50:24;0.30;;;0.30;;
75614;SDS011;64199;48.578;-4.520;2023-04-06T05:52:50;0.30;;;0.30;;
75614;SDS011;64199;48.578;-4.520;2023-04-06T05:55:16;0.35;;;0.30;;
75614;SDS011;64199;48.578;-4.520;2023-04-06T05:57:41;0.50;;;0.25;;
75614;SDS011;64199;48.578;-4.520;2023-04-06T06:00:07;0.43;;;0.43;;
75614;SDS011;64199;48.578;-4.520;2023-04-06T06:02:35;0.50;;;0.43;;
75614;SDS011;64199;48.578;-4.520;2023-04-06T06:05:01;0.30;;;0.30;;
75614;SDS011;64199;48.578;-4.520;2023-04-06T06:07:27;0.40;;;0.30;;
75614;SDS011;64199;48.578;-4.520;2023-04-06T06:09:55;0.40;;;0.40;;
75614;SDS011;64199;48.578;-4.520;2023-04-06T06:12:24;0.85;;;0.30;;
75614;SDS011;64199;48.578;-4.520;2023-04-06T06:14:50;1.02;;;0.32;;
75614;SDS011;64199;48.578;-4.520;2023-04-06T06:17:16;0.40;;;0.30;;
75614;SDS011;64199;48.578;-4.520;2023-04-06T06:19:42;2.55;;;0.43;;
75614;SDS011;64199;48.578;-4.520;2023-04-06T06:22:07;0.98;;;0.40;;
75614;SDS011;64199;48.578;-4.520;2023-04-06T06:24:33;0.30;;;0.30;;
75614;SDS011;64199;48.578;-4.520;2023-04-06T06:26:59;0.43;;;0.22;;
75614;SDS011;64199;48.578;-4.520;2023-04-06T06:29:25;0.95;;;0.40;;
75614;SDS011;64199;48.578;-4.520;2023-04-06T06:31:51;0.30;;;0.30;;
75614;SDS011;64199;48.578;-4.520;2023-04-06T06:34:17;0.55;;;0.30;;
75614;SDS011;64199;48.578;-4.520;2023-04-06T06:36:43;0.50;;;0.20;;
75614;SDS011;64199;48.578;-4.520;2023-04-06T06:39:08;0.40;;;0.40;;
75614;SDS011;64199;48.578;-4.520;2023-04-06T06:41:34;0.50;;;0.32;;
75614;SDS011;64199;48.578;-4.520;2023-04-06T06:44:00;0.40;;;0.38;;
75614;SDS011;64199;48.578;-4.520;2023-04-06T06:46:27;0.30;;;0.30;;
75614;SDS011;64199;48.578;-4.520;2023-04-06T06:48:53;1.08;;;0.30;;
75614;SDS011;64199;48.578;-4.520;2023-04-06T06:51:18;0.35;;;0.28;;
75614;SDS011;64199;48.578;-4.520;2023-04-06T06:53:44;0.45;;;0.30;;
75614;SDS011;64199;48.578;-4.520;2023-04-06T06:56:10;1.05;;;0.45;;
75614;SDS011;64199;48.578;-4.520;2023-04-06T06:58:37;0.40;;;0.40;;
75614;SDS011;64199;48.578;-4.520;2023-04-06T07:01:03;0.40;;;0.30;;
75614;SDS011;64199;48.578;-4.520;2023-04-06T07:03:30;0.40;;;0.40;;
75614;SDS011;64199;48.578;-4.520;2023-04-06T07:05:56;1.83;;;0.40;;
75614;SDS011;64199;48.578;-4.520;2023-04-06T07:08:22;0.85;;;0.40;;
75614;SDS011;64199;48.578;-4.520;2023-04-06T07:10:50;0.47;;;0.30;;
75614;SDS011;64199;48.578;-4.520;2023-04-06T07:13:23;0.30;;;0.30;;
75614;SDS011;64199;48.578;-4.520;2023-04-06T07:15:49;0.65;;;0.57;;
75614;SDS011;64199;48.578;-4.520;2023-04-06T07:18:19;0.52;;;0.40;;
75614;SDS011;64199;48.578;-4.520;2023-04-06T07:20:45;0.30;;;0.30;;
75614;SDS011;64199;48.578;-4.520;2023-04-06T07:23:11;0.40;;;0.30;;
75614;SDS011;64199;48.578;-4.520;2023-04-06T07:25:37;1.08;;;0.30;;
75614;SDS011;64199;48.578;-4.520;2023-04-06T07:28:03;0.47;;;0.30;;
75614;SDS011;64199;48.578;-4.520;2023-04-06T07:30:30;0.32;;;0.30;;
75614;SDS011;64199;48.578;-4.520;2023-04-06T07:33:08;0.45;;;0.40;;
75614;SDS011;64199;48.578;-4.520;2023-04-06T07:35:34;0.30;;;0.30;;
75614;SDS011;64199;48.578;-4.520;2023-04-06T07:38:01;0.30;;;0.30;;
75614;SDS011;64199;48.578;-4.520;2023-04-06T07:40:27;1.25;;;0.45;;
75614;SDS011;64199;48.578;-4.520;2023-04-06T07:42:53;0.35;;;0.35;;
75614;SDS011;64199;48.578;-4.520;2023-04-06T07:45:19;2.25;;;0.40;;
75614;SDS011;64199;48.578;-4.520;2023-04-06T07:47:45;1.75;;;0.40;;
75614;SDS011;64199;48.578;-4.520;2023-04-06T07:50:12;1.13;;;0.40;;
75614;SDS011;64199;48.578;-4.520;2023-04-06T07:52:38;1.95;;;0.40;;
75614;SDS011;64199;48.578;-4.520;2023-04-06T07:55:05;0.65;;;0.40;;
75614;SDS011;64199;48.578;-4.520;2023-04-06T07:57:31;0.57;;;0.40;;
75614;SDS011;64199;48.578;-4.520;2023-04-06T07:59:56;1.08;;;0.40;;
75614;SDS011;64199;48.578;-4.520;2023-04-06T08:02:22;1.35;;;0.40;;
75614;SDS011;64199;48.578;-4.520;2023-04-06T08:04:48;3.50;;;0.55;;
75614;SDS011;64199;48.578;-4.520;2023-04-06T08:07:14;0.98;;;0.50;;
75614;SDS011;64199;48.578;-4.520;2023-04-06T08:09:40;1.98;;;0.68;;
75614;SDS011;64199;48.578;-4.520;2023-04-06T08:12:06;6.57;;;1.40;;
75614;SDS011;64199;48.578;-4.520;2023-04-06T08:14:32;8.05;;;1.13;;
75614;SDS011;64199;48.578;-4.520;2023-04-06T08:16:58;8.07;;;1.33;;
75614;SDS011;64199;48.578;-4.520;2023-04-06T08:19:24;8.93;;;1.20;;
75614;SDS011;64199;48.578;-4.520;2023-04-06T08:21:50;8.38;;;1.10;;
75614;SDS011;64199;48.578;-4.520;2023-04-06T08:24:16;9.40;;;0.85;;
75614;SDS011;64199;48.578;-4.520;2023-04-06T08:26:42;5.40;;;1.10;;
75614;SDS011;64199;48.578;-4.520;2023-04-06T08:29:08;5.05;;;1.10;;
75614;SDS011;64199;48.578;-4.520;2023-04-06T08:31:34;6.47;;;1.00;;
75614;SDS011;64199;48.578;-4.520;2023-04-06T08:34:01;4.07;;;1.45;;
75614;SDS011;64199;48.578;-4.520;2023-04-06T08:36:28;4.70;;;1.03;;
75614;SDS011;64199;48.578;-4.520;2023-04-06T08:38:54;4.60;;;1.00;;
75614;SDS011;64199;48.578;-4.520;2023-04-06T08:41:20;2.42;;;0.85;;
75614;SDS011;64199;48.578;-4.520;2023-04-06T08:43:47;4.20;;;0.82;;
75614;SDS011;64199;48.578;-4.520;2023-04-06T08:46:13;4.50;;;1.00;;
75614;SDS011;64199;48.578;-4.520;2023-04-06T08:48:40;3.97;;;0.80;;
75614;SDS011;64199;48.578;-4.520;2023-04-06T08:51:07;2.87;;;0.97;;
75614;SDS011;64199;48.578;-4.520;2023-04-06T08:53:34;1.52;;;0.90;;
75614;SDS011;64199;48.578;-4.520;2023-04-06T08:56:00;4.68;;;0.90;;
75614;SDS011;64199;48.578;-4.520;2023-04-06T08:58:28;1.55;;;0.73;;
75614;SDS011;64199;48.578;-4.520;2023-04-06T09:01:08;3.58;;;0.95;;
75614;SDS011;64199;48.578;-4.520;2023-04-06T09:03:38;1.05;;;0.80;;
75614;SDS011;64199;48.578;-4.520;2023-04-06T09:06:05;2.10;;;0.80;;
75614;SDS011;64199;48.578;-4.520;2023-04-06T09:08:32;3.63;;;1.08;;
75614;SDS011;64199;48.578;-4.520;2023-04-06T09:11:02;2.78;;;0.70;;
75614;SDS011;64199;48.578;-4.520;2023-04-06T09:13:28;1.67;;;0.80;;
75614;SDS011;64199;48.578;-4.520;2023-04-06T09:15:58;3.03;;;0.80;;
75614;SDS011;64199;48.578;-4.520;2023-04-06T09:18:29;3.60;;;1.10;;
75614;SDS011;64199;48.578;-4.520;2023-04-06T09:21:02;4.47;;;1.10;;
75614;SDS011;64199;48.578;-4.520;2023-04-06T09:23:30;2.15;;;0.70;;
75614;SDS011;64199;48.578;-4.520;2023-04-06T09:28:40;1.17;;;0.50;;
75614;SDS011;64199;48.578;-4.520;2023-04-06T09:31:07;2.22;;;0.82;;
75614;SDS011;64199;48.578;-4.520;2023-04-06T09:33:37;1.60;;;0.93;;
75614;SDS011;64199;48.578;-4.520;2023-04-06T09:36:04;1.50;;;0.68;;
75614;SDS011;64199;48.578;-4.520;2023-04-06T09:38:31;2.45;;;0.93;;
75614;SDS011;64199;48.578;-4.520;2023-04-06T09:40:57;0.68;;;0.50;;
75614;SDS011;64199;48.578;-4.520;2023-04-06T09:43:23;1.38;;;0.77;;
75614;SDS011;64199;48.578;-4.520;2023-04-06T09:45:50;1.30;;;0.67;;
75614;SDS011;64199;48.578;-4.520;2023-04-06T09:48:18;2.67;;;0.95;;
75614;SDS011;64199;48.578;-4.520;2023-04-06T09:50:45;3.60;;;0.88;;
75614;SDS011;64199;48.578;-4.520;2023-04-06T09:53:12;5.18;;;0.80;;
75614;SDS011;64199;48.578;-4.520;2023-04-06T09:55:42;1.48;;;0.70;;
75614;SDS011;64199;48.578;-4.520;2023-04-06T09:58:12;0.85;;;0.70;;
75614;SDS011;64199;48.578;-4.520;2023-04-06T10:01:02;3.58;;;1.08;;
75614;SDS011;64199;48.578;-4.520;2023-04-06T10:06:07;2.35;;;0.70;;
75614;SDS011;64199;48.578;-4.520;2023-04-06T10:08:36;2.05;;;0.77;;
75614;SDS011;64199;48.578;-4.520;2023-04-06T10:11:05;3.47;;;1.23;;
75614;SDS011;64199;48.578;-4.520;2023-04-06T10:13:32;3.20;;;0.93;;
75614;SDS011;64199;48.578;-4.520;2023-04-06T10:15:59;0.93;;;0.60;;
75614;SDS011;64199;48.578;-4.520;2023-04-06T10:18:28;1.25;;;0.60;;
75614;SDS011;64199;48.578;-4.520;2023-04-06T10:20:56;1.30;;;0.75;;
75614;SDS011;64199;48.578;-4.520;2023-04-06T10:26:15;1.50;;;0.70;;
75614;SDS011;64199;48.578;-4.520;2023-04-06T10:28:43;1.67;;;0.80;;
75614;SDS011;64199;48.578;-4.520;2023-04-06T10:31:10;2.05;;;0.98;;
75614;SDS011;64199;48.578;-4.520;2023-04-06T10:33:36;1.85;;;0.73;;
75614;SDS011;64199;48.578;-4.520;2023-04-06T10:36:15;1.48;;;0.73;;
75614;SDS011;64199;48.578;-4.520;2023-04-06T10:38:53;2.33;;;0.88;;
75614;SDS011;64199;48.578;-4.520;2023-04-06T10:41:20;2.10;;;0.85;;
75614;SDS011;64199;48.578;-4.520;2023-04-06T10:43:46;4.28;;;0.63;;
75614;SDS011;64199;48.578;-4.520;2023-04-06T10:46:31;1.17;;;0.70;;
75614;SDS011;64199;48.578;-4.520;2023-04-06T10:48:58;1.30;;;0.75;;
75614;SDS011;64199;48.578;-4.520;2023-04-06T10:51:37;1.27;;;0.63;;
75614;SDS011;64199;48.578;-4.520;2023-04-06T10:54:03;1.13;;;0.67;;
75614;SDS011;64199;48.578;-4.520;2023-04-06T10:58:59;2.28;;;0.75;;
75614;SDS011;64199;48.578;-4.520;2023-04-06T11:01:25;2.70;;;0.90;;
75614;SDS011;64199;48.578;-4.520;2023-04-06T11:03:53;1.05;;;0.60;;
75614;SDS011;64199;48.578;-4.520;2023-04-06T11:06:24;1.60;;;0.80;;
75614;SDS011;64199;48.578;-4.520;2023-04-06T11:08:52;2.53;;;0.70;;
75614;SDS011;64199;48.578;-4.520;2023-04-06T11:11:21;1.05;;;0.70;;
75614;SDS011;64199;48.578;-4.520;2023-04-06T11:13:49;3.35;;;0.93;;
75614;SDS011;64199;48.578;-4.520;2023-04-06T11:16:16;1.63;;;0.77;;
75614;SDS011;64199;48.578;-4.520;2023-04-06T11:19:07;2.20;;;0.75;;
75614;SDS011;64199;48.578;-4.520;2023-04-06T11:21:40;2.10;;;0.52;;
75614;SDS011;64199;48.578;-4.520;2023-04-06T11:24:21;2.10;;;0.85;;
75614;SDS011;64199;48.578;-4.520;2023-04-06T11:26:49;0.82;;;0.60;;
75614;SDS011;64199;48.578;-4.520;2023-04-06T11:29:20;0.95;;;0.73;;
75614;SDS011;64199;48.578;-4.520;2023-04-06T11:31:51;1.60;;;0.68;;
75614;SDS011;64199;48.578;-4.520;2023-04-06T11:34:19;1.88;;;0.63;;
75614;SDS011;64199;48.578;-4.520;2023-04-06T11:36:46;1.35;;;0.50;;
75614;SDS011;64199;48.578;-4.520;2023-04-06T11:39:25;2.35;;;0.85;;
75614;SDS011;64199;48.578;-4.520;2023-04-06T11:41:54;0.70;;;0.43;;
75614;SDS011;64199;48.578;-4.520;2023-04-06T11:44:34;1.15;;;0.75;;
75614;SDS011;64199;48.578;-4.520;2023-04-06T11:47:11;2.38;;;0.60;;
75614;SDS011;64199;48.578;-4.520;2023-04-06T11:49:37;1.73;;;0.73;;
75614;SDS011;64199;48.578;-4.520;2023-04-06T11:52:18;1.98;;;0.68;;
75614;SDS011;64199;48.578;-4.520;2023-04-06T11:54:46;0.75;;;0.45;;
75614;SDS011;64199;48.578;-4.520;2023-04-06T11:57:13;1.58;;;0.98;;
75614;SDS011;64199;48.578;-4.520;2023-04-06T11:59:39;1.02;;;0.70;;
75614;SDS011;64199;48.578;-4.520;2023-04-06T12:02:05;2.10;;;0.70;;
75614;SDS011;64199;48.578;-4.520;2023-04-06T12:04:31;1.00;;;0.50;;
75614;SDS011;64199;48.578;-4.520;2023-04-06T12:06:57;1.00;;;0.60;;
75614;SDS011;64199;48.578;-4.520;2023-04-06T12:09:26;2.30;;;0.82;;
75614;SDS011;64199;48.578;-4.520;2023-04-06T12:11:52;1.98;;;0.80;;
75614;SDS011;64199;48.578;-4.520;2023-04-06T12:14:19;1.73;;;0.70;;
75614;SDS011;64199;48.578;-4.520;2023-04-06T12:16:45;1.27;;;0.52;;
75614;SDS011;64199;48.578;-4.520;2023-04-06T12:19:11;1.40;;;0.70;;
75614;SDS011;64199;48.578;-4.520;2023-04-06T12:21:37;4.22;;;0.95;;
75614;SDS011;64199;48.578;-4.520;2023-04-06T12:24:04;1.35;;;0.60;;
75614;SDS011;64199;48.578;-4.520;2023-04-06T12:26:30;2.55;;;0.77;;
75614;SDS011;64199;48.578;-4.520;2023-04-06T12:28:57;1.42;;;0.63;;
75614;SDS011;64199;48.578;-4.520;2023-04-06T12:31:36;1.63;;;0.73;;
75614;SDS011;64199;48.578;-4.520;2023-04-06T12:34:07;1.45;;;0.75;;
75614;SDS011;64199;48.578;-4.520;2023-04-06T12:36:34;2.83;;;0.70;;
75614;SDS011;64199;48.578;-4.520;2023-04-06T12:39:00;1.05;;;0.65;;
75614;SDS011;64199;48.578;-4.520;2023-04-06T12:41:27;2.13;;;0.60;;
75614;SDS011;64199;48.578;-4.520;2023-04-06T12:43:53;0.52;;;0.40;;
75614;SDS011;64199;48.578;-4.520;2023-04-06T12:46:19;2.38;;;0.80;;
75614;SDS011;64199;48.578;-4.520;2023-04-06T12:48:46;3.10;;;0.60;;
75614;SDS011;64199;48.578;-4.520;2023-04-06T12:51:12;2.35;;;0.70;;
75614;SDS011;64199;48.578;-4.520;2023-04-06T12:53:38;3.08;;;0.93;;
75614;SDS011;64199;48.578;-4.520;2023-04-06T12:56:10;4.50;;;0.70;;
75614;SDS011;64199;48.578;-4.520;2023-04-06T12:58:38;2.22;;;0.70;;
75614;SDS011;64199;48.578;-4.520;2023-04-06T13:01:06;1.15;;;0.65;;
75614;SDS011;64199;48.578;-4.520;2023-04-06T13:03:32;3.08;;;1.25;;
75614;SDS011;64199;48.578;-4.520;2023-04-06T13:05:59;1.52;;;0.50;;
75614;SDS011;64199;48.578;-4.520;2023-04-06T13:08:25;2.35;;;0.85;;
75614;SDS011;64199;48.578;-4.520;2023-04-06T13:10:52;3.70;;;0.90;;
75614;SDS011;64199;48.578;-4.520;2023-04-06T13:13:26;1.15;;;0.70;;
75614;SDS011;64199;48.578;-4.520;2023-04-06T13:15:54;1.52;;;0.80;;
75614;SDS011;64199;48.578;-4.520;2023-04-06T13:18:24;1.52;;;0.65;;
75614;SDS011;64199;48.578;-4.520;2023-04-06T13:20:50;2.13;;;0.88;;
75614;SDS011;64199;48.578;-4.520;2023-04-06T13:23:16;2.58;;;1.00;;
75614;SDS011;64199;48.578;-4.520;2023-04-06T13:25:42;1.20;;;0.52;;
75614;SDS011;64199;48.578;-4.520;2023-04-06T13:28:08;1.35;;;0.80;;
75614;SDS011;64199;48.578;-4.520;2023-04-06T13:30:35;2.70;;;0.82;;
75614;SDS011;64199;48.578;-4.520;2023-04-06T13:33:01;1.88;;;0.85;;
75614;SDS011;64199;48.578;-4.520;2023-04-06T13:35:27;1.52;;;0.60;;
75614;SDS011;64199;48.578;-4.520;2023-04-06T13:37:53;1.17;;;0.60;;
75614;SDS011;64199;48.578;-4.520;2023-04-06T13:40:19;1.85;;;0.63;;
75614;SDS011;64199;48.578;-4.520;2023-04-06T13:42:46;2.28;;;0.70;;
75614;SDS011;64199;48.578;-4.520;2023-04-06T13:45:12;1.58;;;0.70;;
75614;SDS011;64199;48.578;-4.520;2023-04-06T13:47:38;2.20;;;0.95;;
75614;SDS011;64199;48.578;-4.520;2023-04-06T13:50:04;2.30;;;0.90;;
75614;SDS011;64199;48.578;-4.520;2023-04-06T13:52:31;1.17;;;0.60;;
75614;SDS011;64199;48.578;-4.520;2023-04-06T13:54:57;4.13;;;0.73;;
75614;SDS011;64199;48.578;-4.520;2023-04-06T13:57:23;2.13;;;0.73;;
75614;SDS011;64199;48.578;-4.520;2023-04-06T13:59:48;2.63;;;0.60;;
75614;SDS011;64199;48.578;-4.520;2023-04-06T14:04:44;2.22;;;0.73;;
75614;SDS011;64199;48.578;-4.520;2023-04-06T14:07:10;2.88;;;0.90;;
75614;SDS011;64199;48.578;-4.520;2023-04-06T14:09:36;1.90;;;0.80;;
75614;SDS011;64199;48.578;-4.520;2023-04-06T14:12:02;2.55;;;0.57;;
75614;SDS011;64199;48.578;-4.520;2023-04-06T14:14:28;1.13;;;0.55;;
75614;SDS011;64199;48.578;-4.520;2023-04-06T14:16:53;1.13;;;0.60;;
75614;SDS011;64199;48.578;-4.520;2023-04-06T14:19:19;1.38;;;0.70;;
75614;SDS011;64199;48.578;-4.520;2023-04-06T14:21:48;1.30;;;0.70;;
75614;SDS011;64199;48.578;-4.520;2023-04-06T14:24:14;0.93;;;0.50;;
75614;SDS011;64199;48.578;-4.520;2023-04-06T14:26:41;0.75;;;0.50;;
75614;SDS011;64199;48.578;-4.520;2023-04-06T14:29:07;1.00;;;0.50;;
75614;SDS011;64199;48.578;-4.520;2023-04-06T14:31:34;2.67;;;0.70;;
75614;SDS011;64199;48.578;-4.520;2023-04-06T14:34:00;2.08;;;0.85;;
75614;SDS011;64199;48.578;-4.520;2023-04-06T14:36:27;2.50;;;0.63;;
75614;SDS011;64199;48.578;-4.520;2023-04-06T14:38:54;1.85;;;0.75;;
75614;SDS011;64199;48.578;-4.520;2023-04-06T14:41:22;2.80;;;0.80;;
75614;SDS011;64199;48.578;-4.520;2023-04-06T14:43:49;1.25;;;0.63;;
75614;SDS011;64199;48.578;-4.520;2023-04-06T14:46:17;2.23;;;0.70;;